Time;durP1;ratioP1;P1;durP2;ratioP2;P2;SDS_P1;SDS_P2;PMS_P1;PMS_P2;Temp;Humidity;BMP_temperature;BMP_pressure;BME280_temperature;BME280_humidity;BME280_pressure;Samples;Min_cycle;Max_cycle;Signal;HPM_P1;HPM_P2
2021/12/09 00:03:42;;;;;;;;;;;;;;;-4.98;82.26;98807.95;426919;1312;142926;-63
2021/12/09 00:13:48;;;;;;;32.10;18.30;;;;;;;-4.98;82.26;98799.59;431426;1313;128771;-61
2021/12/09 00:23:55;;;;;;;33.60;21.00;;;;;;;-4.96;82.42;98805.55;432502;1313;142218;-63
2021/12/09 00:34:03;;;;;;;32.20;19.10;;;;;;;-4.93;82.32;98809.42;434656;1313;142072;-63
2021/12/09 00:44:10;;;;;;;26.40;16.40;;;;;;;-4.95;82.46;98821.06;425307;1312;142177;-63
2021/12/09 00:54:16;;;;;;;31.30;20.20;;;;;;;-5.01;82.42;98826.95;430155;1313;143048;-64
2021/12/09 01:04:23;;;;;;;35.10;21.10;;;;;;;-5.05;82.50;98812.15;432208;1312;143095;-62
2021/12/09 01:14:29;;;;;;;32.20;17.60;;;;;;;-5.09;82.58;98806.05;423334;1312;142247;-63
2021/12/09 01:24:34;;;;;;;;;;;;;;;-5.14;82.54;98784.10;433655;1312;142282;-62
2021/12/09 01:34:41;;;;;;;28.40;17.30;;;;;;;-5.12;82.66;98771.63;434870;1313;129340;-62
2021/12/09 01:44:49;;;;;;;33.80;19.50;;;;;;;-5.13;82.68;98773.00;431369;1312;142201;-62
2021/12/09 01:54:55;;;;;;;27.50;17.00;;;;;;;-5.18;82.76;98773.58;433685;1314;142693;-62
2021/12/09 02:05:03;;;;;;;25.20;16.70;;;;;;;-5.21;82.80;98755.00;434596;1312;142229;-63
2021/12/09 02:15:10;;;;;;;29.00;18.40;;;;;;;-5.17;82.88;98751.55;425039;1312;142955;-62
2021/12/09 02:25:18;;;;;;;32.60;19.50;;;;;;;-5.13;82.72;98747.92;432808;1313;141919;-63
2021/12/09 02:35:24;;;;;;;31.20;19.00;;;;;;;-5.19;82.48;98745.59;434626;1312;141804;-63
2021/12/09 02:45:31;;;;;;;32.00;18.40;;;;;;;-5.21;82.31;98739.48;429016;1312;142631;-62
2021/12/09 02:55:38;;;;;;;31.80;18.30;;;;;;;-5.28;82.28;98740.44;425647;1312;142175;-63
2021/12/09 03:05:45;;;;;;;29.90;18.10;;;;;;;-5.37;82.33;98739.02;425183;1309;197620;-64
2021/12/09 03:15:52;;;;;;;30.90;17.50;;;;;;;-5.45;82.31;98753.26;433032;1313;143392;-64
2021/12/09 03:25:58;;;;;;;30.60;17.10;;;;;;;-5.57;82.36;98750.86;433227;1313;142069;-64
2021/12/09 03:36:07;;;;;;;29.20;18.10;;;;;;;-5.62;82.46;98763.02;433820;1313;142399;-64
2021/12/09 03:46:13;;;;;;;32.90;20.10;;;;;;;-5.59;82.72;98759.93;434366;1309;142054;-64
2021/12/09 03:56:21;;;;;;;36.00;19.10;;;;;;;-5.55;82.73;98760.20;421313;1309;142291;-63
2021/12/09 04:06:29;;;;;;;33.50;19.60;;;;;;;-5.52;82.87;98751.31;417272;1313;142370;-62
2021/12/09 04:16:36;;;;;;;32.80;18.70;;;;;;;-5.55;83.02;98743.32;423522;1313;146360;-63
2021/12/09 04:26:44;;;;;;;33.90;19.80;;;;;;;-5.57;83.13;98732.94;419230;1313;142121;-64
2021/12/09 04:36:50;;;;;;;31.70;18.40;;;;;;;-5.52;83.28;98730.84;425530;1313;143196;-62
2021/12/09 04:46:57;;;;;;;33.70;20.90;;;;;;;-5.49;83.27;98736.10;423948;1310;143133;-63
2021/12/09 04:57:04;;;;;;;33.10;19.80;;;;;;;-5.45;83.25;98744.23;419219;1312;142094;-63
2021/12/09 05:07:11;;;;;;;30.50;18.80;;;;;;;-5.43;83.27;98733.28;432026;1313;142158;-62
2021/12/09 05:17:19;;;;;;;37.40;21.30;;;;;;;-5.36;83.28;98735.08;427767;1312;142308;-62
2021/12/09 05:27:25;;;;;;;35.40;21.60;;;;;;;-5.41;83.28;98740.93;432291;1312;143229;-63
2021/12/09 05:37:31;;;;;;;37.20;21.40;;;;;;;-5.46;83.41;98752.77;434554;1313;141780;-64
2021/12/09 05:47:38;;;;;;;40.00;23.40;;;;;;;-5.45;83.28;98745.25;434033;1313;142881;-64
2021/12/09 05:57:44;;;;;;;36.90;20.40;;;;;;;-5.38;83.38;98723.50;429911;1312;142573;-64
2021/12/09 06:07:51;;;;;;;38.00;21.30;;;;;;;-5.37;83.40;98736.63;434094;1313;142396;-65
2021/12/09 06:17:58;;;;;;;36.00;19.70;;;;;;;-5.37;83.44;98757.44;431394;1314;143914;-65
2021/12/09 06:28:04;;;;;;;38.70;21.80;;;;;;;-5.33;83.49;98776.66;434037;1312;142503;-64
2021/12/09 06:38:14;;;;;;;;;;;;;;;-5.30;83.52;98778.34;423670;1310;142634;-63
2021/12/09 06:48:20;;;;;;;35.20;21.70;;;;;;;-5.34;83.51;98797.15;433620;1313;128407;-63
2021/12/09 06:58:27;;;;;;;37.90;20.80;;;;;;;-5.32;83.62;98765.90;433760;1315;142295;-64
2021/12/09 07:08:33;;;;;;;37.50;21.90;;;;;;;-5.24;83.53;98785.24;434249;1313;143143;-64
2021/12/09 07:18:40;;;;;;;32.70;19.10;;;;;;;-5.23;83.60;98771.41;430957;1313;144690;-63
2021/12/09 07:28:46;;;;;;;45.90;21.80;;;;;;;-5.18;83.55;98762.98;429701;1312;142427;-63
2021/12/09 07:38:52;;;;;;;37.30;19.20;;;;;;;-5.11;83.54;98782.19;427108;1313;142997;-64
2021/12/09 07:48:58;;;;;;;36.50;21.20;;;;;;;-5.05;83.44;98792.69;434667;1312;141566;-64
2021/12/09 07:59:04;;;;;;;33.10;17.80;;;;;;;-5.02;83.52;98798.97;431869;1313;142118;-63
2021/12/09 08:09:09;;;;;;;;;;;;;;;-4.94;83.68;98802.63;417551;1312;143014;-64
2021/12/09 08:19:16;;;;;;;35.50;21.00;;;;;;;-4.83;83.56;98804.02;434391;1313;127928;-63
2021/12/09 08:29:22;;;;;;;38.00;21.70;;;;;;;-4.68;83.58;98798.67;434216;1308;142094;-63
2021/12/09 08:39:28;;;;;;;38.60;22.60;;;;;;;-4.59;83.51;98793.59;431268;1313;142098;-66
2021/12/09 08:49:34;;;;;;;43.30;23.90;;;;;;;-4.47;83.42;98792.73;431845;1313;142183;-62
2021/12/09 08:59:40;;;;;;;38.30;21.10;;;;;;;-4.30;83.42;98789.20;420664;1313;141666;-63
2021/12/09 09:09:46;;;;;;;34.40;21.40;;;;;;;-4.18;83.32;98783.20;432278;1312;144800;-59
2021/12/09 09:19:53;;;;;;;33.70;21.10;;;;;;;-4.01;83.17;98808.55;426505;1312;141802;-74
2021/12/09 09:29:59;;;;;;;40.40;24.00;;;;;;;-3.89;83.19;98801.33;428779;1312;142416;-75
2021/12/09 09:40:10;;;;;;;38.50;21.70;;;;;;;-3.89;82.92;98787.83;434012;1314;142176;-76
2021/12/09 09:50:16;;;;;;;37.30;21.70;;;;;;;-3.86;83.04;98787.09;431650;1312;142400;-66
2021/12/09 10:00:23;;;;;;;42.30;23.50;;;;;;;-3.67;83.02;98775.78;428061;1314;143091;-67
2021/12/09 10:10:29;;;;;;;37.90;23.60;;;;;;;-3.48;82.90;98753.69;434200;1313;142475;-67
2021/12/09 10:20:51;;;;;;;38.20;22.10;;;;;;;-3.32;82.49;98759.86;434705;1312;141366;-67
2021/12/09 10:31:12;;;;;;;39.80;23.20;;;;;;;-3.32;82.42;98759.36;431911;1313;141735;-67
2021/12/09 10:41:35;;;;;;;43.60;23.10;;;;;;;-3.20;82.26;98749.20;433296;1313;142583;-67
2021/12/09 10:51:46;;;;;;;34.80;20.40;;;;;;;-3.00;82.27;98736.25;427540;1312;143052;-69
2021/12/09 11:02:07;;;;;;;42.20;22.50;;;;;;;-2.63;82.05;98739.19;432185;1312;142344;-70
2021/12/09 11:22:45;;;;;;;30.30;20.30;;;;;;;-2.66;81.37;98698.29;420054;1352;600462;-71
2021/12/09 11:33:02;;;;;;;32.30;18.80;;;;;;;-2.81;81.21;98693.35;433134;1314;166717;-69
2021/12/09 11:43:10;;;;;;;;;;;;;;;-2.85;81.24;98696.17;428650;1316;140813;-69
2021/12/09 11:53:20;;;;;;;33.90;20.40;;;;;;;-2.87;81.09;98679.09;426722;1315;126876;-73
2021/12/09 12:14:16;;;;;;;30.10;19.70;;;;;;;-2.83;80.84;98672.66;431969;1316;141551;-61
2021/12/09 12:56:12;;;;;;;26.20;16.70;;;;;;;-2.53;80.61;98631.30;433480;1316;140983;-63
2021/12/09 13:06:43;;;;;;;32.90;20.50;;;;;;;-2.47;80.43;98639.91;424434;1315;140977;-63
2021/12/09 13:17:03;;;;;;;27.20;17.10;;;;;;;-2.51;80.46;98654.57;433793;1315;142068;-61
2021/12/09 13:27:19;;;;;;;31.20;18.40;;;;;;;-2.57;80.40;98660.91;427911;1315;142395;-64
2021/12/09 13:37:38;;;;;;;;;;;;;;;-2.53;80.49;98663.69;434046;1316;142105;-67
2021/12/09 13:47:51;;;;;;;33.80;21.60;;;;;;;-2.51;80.43;98662.63;431728;1315;128991;-65
2021/12/09 13:57:59;;;;;;;34.20;21.90;;;;;;;-2.59;80.23;98663.68;429429;1315;141825;-61
2021/12/09 14:08:08;;;;;;;37.00;21.00;;;;;;;-2.64;80.42;98658.68;434035;1314;143467;-60
2021/12/09 14:18:23;;;;;;;36.20;21.90;;;;;;;-2.69;80.44;98653.81;433286;1312;141535;-63
2021/12/09 14:28:35;;;;;;;38.00;23.60;;;;;;;-2.73;80.35;98660.94;429880;1314;142588;-63
2021/12/09 14:38:41;;;;;;;39.20;20.90;;;;;;;-2.79;80.60;98654.23;434099;1316;141716;-64
2021/12/09 14:48:48;;;;;;;34.40;21.60;;;;;;;-2.83;80.62;98642.85;430118;1317;143638;-60
2021/12/09 14:58:56;;;;;;;37.30;23.10;;;;;;;-2.89;80.55;98638.20;433397;1316;141476;-60
2021/12/09 15:09:13;;;;;;;30.70;21.70;;;;;;;-2.94;80.70;98637.83;432162;1314;141836;-59
2021/12/09 15:19:21;;;;;;;39.50;23.80;;;;;;;-3.03;80.71;98627.09;434128;1314;144154;-60
2021/12/09 15:29:27;;;;;;;36.00;21.80;;;;;;;-3.07;80.91;98622.19;432939;1316;143184;-59
2021/12/09 15:39:35;;;;;;;34.90;22.30;;;;;;;-3.10;80.91;98619.36;432801;1315;141882;-60
2021/12/09 15:49:45;;;;;;;33.70;21.30;;;;;;;-3.12;81.04;98622.65;429249;1315;142325;-60
2021/12/09 15:59:52;;;;;;;40.10;24.20;;;;;;;-3.12;81.15;98612.38;427788;1315;164310;-60
2021/12/09 16:09:58;;;;;;;34.60;20.60;;;;;;;-3.12;81.31;98614.62;433263;1315;142754;-60
2021/12/09 16:20:09;;;;;;;32.00;22.40;;;;;;;-3.17;81.29;98603.42;428426;1314;142389;-54
2021/12/09 16:30:19;;;;;;;32.30;20.80;;;;;;;-3.19;81.46;98598.85;423492;1313;141479;-60
2021/12/09 16:40:28;;;;;;;34.60;22.10;;;;;;;-3.21;81.59;98579.55;433153;1313;142319;-51
2021/12/09 16:50:37;;;;;;;29.00;18.50;;;;;;;-3.22;81.81;98569.98;430182;1313;144846;-67
2021/12/09 17:00:46;;;;;;;34.40;20.60;;;;;;;-3.18;81.86;98564.75;430536;1313;141651;-64
2021/12/09 17:10:52;;;;;;;31.30;20.50;;;;;;;-3.22;81.85;98569.31;431375;1313;143769;-59
2021/12/09 17:20:59;;;;;;;38.20;23.20;;;;;;;-3.24;82.03;98585.61;427313;1313;141998;-59
2021/12/09 17:31:05;;;;;;;31.30;19.80;;;;;;;-3.28;82.23;98578.51;433785;1310;141519;-60
2021/12/09 17:41:12;;;;;;;33.40;20.30;;;;;;;-3.27;82.36;98576.27;423740;1314;142017;-59
2021/12/09 17:51:20;;;;;;;28.90;18.10;;;;;;;-3.23;82.40;98560.61;431164;1315;141647;-62
2021/12/09 18:01:26;;;;;;;32.40;20.30;;;;;;;-3.21;82.36;98562.79;432539;1314;141951;-59
2021/12/09 18:11:35;;;;;;;28.60;16.80;;;;;;;-3.20;82.44;98576.13;434014;1311;143005;-60
2021/12/09 18:21:43;;;;;;;29.10;18.00;;;;;;;-3.17;82.57;98576.38;433317;1315;142422;-60
2021/12/09 18:31:48;;;;;;;35.30;19.10;;;;;;;-3.15;82.57;98584.90;432694;1315;143091;-60
2021/12/09 18:41:56;;;;;;;36.80;22.60;;;;;;;-3.18;82.75;98583.25;433141;1311;142241;-59
2021/12/09 18:52:02;;;;;;;38.40;23.30;;;;;;;-3.18;82.94;98579.47;423105;1315;141921;-61
2021/12/09 19:02:09;;;;;;;35.70;20.70;;;;;;;-3.23;82.98;98575.66;432481;1314;142874;-60
2021/12/09 19:12:16;;;;;;;45.20;24.60;;;;;;;-3.25;83.17;98557.06;432917;1310;143727;-60
2021/12/09 19:22:25;;;;;;;37.20;21.40;;;;;;;-3.24;83.46;98545.73;433949;1315;142540;-60
2021/12/09 19:32:31;;;;;;;40.10;24.40;;;;;;;-3.23;83.52;98522.09;426581;1313;254214;-60
2021/12/09 19:42:38;;;;;;;39.60;21.20;;;;;;;-3.21;83.75;98493.27;422664;1314;141893;-59
2021/12/09 19:52:45;;;;;;;;;;;;;;;-3.19;83.82;98484.48;434074;1313;142956;-60
2021/12/09 20:02:53;;;;;;;47.00;25.70;;;;;;;-3.18;83.92;98475.90;426399;1314;147385;-60
2021/12/09 20:13:01;;;;;;;45.70;23.50;;;;;;;-3.14;84.08;98472.89;435124;1306;142980;-60
2021/12/09 20:23:07;;;;;;;34.50;21.20;;;;;;;-3.12;84.18;98469.08;435328;1312;141710;-60
2021/12/09 20:33:14;;;;;;;35.20;21.40;;;;;;;-3.05;84.29;98464.79;429278;1310;142033;-60
2021/12/09 20:43:20;;;;;;;34.80;20.50;;;;;;;-2.99;84.26;98456.42;425300;1312;141579;-59
2021/12/09 20:53:25;;;;;;;;;;;;;;;-2.97;84.11;98458.59;434095;1310;141153;-59
2021/12/09 21:03:32;;;;;;;29.50;18.20;;;;;;;-2.97;83.98;98454.64;430364;1309;128587;-60
2021/12/09 21:13:40;;;;;;;30.50;19.00;;;;;;;-2.97;84.03;98436.31;428730;1310;143011;-61
2021/12/09 21:23:46;;;;;;;28.40;17.80;;;;;;;-2.92;84.07;98427.10;428003;1311;141510;-61
2021/12/09 21:34:04;;;;;;;25.70;17.20;;;;;;;-2.90;84.13;98414.73;421469;1309;141475;-60
2021/12/09 21:44:11;;;;;;;26.10;17.50;;;;;;;-2.91;84.24;98406.02;428744;1311;141959;-60
2021/12/09 21:54:15;;;;;;;;;;;;;;;-2.90;84.23;98421.41;432926;1312;141144;-60
2021/12/09 22:04:21;;;;;;;28.50;16.90;;;;;;;-2.85;84.27;98397.98;434558;1312;128033;-59
2021/12/09 22:14:27;;;;;;;27.20;16.80;;;;;;;-2.81;84.29;98393.92;435458;1307;144949;-60
2021/12/09 22:24:33;;;;;;;27.80;17.70;;;;;;;-2.78;84.32;98403.77;434553;1312;142332;-59
2021/12/09 22:34:39;;;;;;;24.00;15.60;;;;;;;-2.76;84.41;98391.20;435335;1312;142701;-60
2021/12/09 22:44:45;;;;;;;23.10;16.90;;;;;;;-2.71;84.46;98378.73;434192;1307;142327;-60
2021/12/09 22:54:53;;;;;;;26.60;18.70;;;;;;;-2.65;84.44;98365.86;427167;1312;141484;-60
2021/12/09 23:04:58;;;;;;;29.50;18.50;;;;;;;-2.59;84.42;98347.37;433139;1307;141101;-59
2021/12/09 23:15:05;;;;;;;31.00;19.50;;;;;;;-2.57;84.41;98355.87;431797;1310;141939;-60
2021/12/09 23:25:11;;;;;;;24.90;16.20;;;;;;;-2.52;84.41;98342.03;434730;1308;142016;-58
2021/12/09 23:35:17;;;;;;;24.30;15.80;;;;;;;-2.43;84.42;98325.11;435391;1312;141513;-59
2021/12/09 23:45:24;;;;;;;27.60;17.40;;;;;;;-2.38;84.47;98332.34;429750;1312;142182;-59
2021/12/09 23:55:30;;;;;;;20.90;12.50;;;;;;;-2.35;84.34;98320.94;419028;1312;140694;-57
